PRIVATE WETTERSTATION BILLIGHEIM-ALLFELD                       ZURCK
Wetterdaten: Donnerstag, 20.07.2017
Datum Zeit Temp. A. Temp. A. min Temp. A. max Feuchte A. Luftdruck Regen Wind Richtung Richtung Sonnenschein ET Solar Taupunkt Windchill Windben Empfang
20.07.2017 00:00 19,3 C 19,3 C 20,2 C 87 % 1010,5 hPa 1,0 l/m 14,5 km/h (3 Bft) S-SO 157 0 min 0,051 mm 0 W/m 17,1 C 16,5 C 27,4 km/h (4 Bft) 97 %
20.07.2017 00:10 18,7 C 18,7 C 19,3 C 88 % 1009,9 hPa 4,4 l/m 17,7 km/h (3 Bft) SO 135 0 min 0,000 mm 0 W/m 16,7 C 15,0 C 37,0 km/h (5 Bft) 98 %
20.07.2017 00:20 18,5 C 18,5 C 18,7 C 88 % 1009,7 hPa 0,8 l/m 16,1 km/h (3 Bft) SO 135 0 min 0,000 mm 0 W/m 16,5 C 15,1 C 32,2 km/h (5 Bft) 98 %
20.07.2017 00:30 18,3 C 18,3 C 18,5 C 89 % 1009,8 hPa 0,2 l/m 14,5 km/h (3 Bft) SO 135 0 min 0,000 mm 0 W/m 16,5 C 15,3 C 27,4 km/h (4 Bft) 97 %
20.07.2017 00:40 18,3 C 18,3 C 18,4 C 89 % 1009,8 hPa 0,0 l/m 6,4 km/h (2 Bft) SO 135 0 min 0,000 mm 0 W/m 16,5 C 18,3 C 20,9 km/h (4 Bft) 98 %
20.07.2017 00:50 18,1 C 18,1 C 18,3 C 89 % 1009,9 hPa 0,0 l/m 6,4 km/h (2 Bft) S-SO 157 0 min 0,000 mm 0 W/m 16,3 C 18,1 C 16,1 km/h (3 Bft) 96 %
20.07.2017 01:00 18,1 C 18,0 C 18,2 C 89 % 1010,1 hPa 0,0 l/m 6,4 km/h (2 Bft) S-SO 157 0 min 0,025 mm 0 W/m 16,3 C 18,1 C 16,1 km/h (3 Bft) 98 %
20.07.2017 01:10 17,9 C 17,9 C 18,1 C 89 % 1010,3 hPa 0,0 l/m 4,8 km/h (1 Bft) S-SO 157 0 min 0,000 mm 0 W/m 16,1 C 17,9 C 9,7 km/h (2 Bft) 97 %
20.07.2017 01:20 17,8 C 17,8 C 17,9 C 89 % 1010,2 hPa 0,0 l/m 0,0 km/h (0 Bft) S-SO 157 0 min 0,000 mm 0 W/m 16,0 C 17,8 C 8,0 km/h (2 Bft) 98 %
20.07.2017 01:30 17,8 C 17,8 C 17,8 C 89 % 1010,0 hPa 0,0 l/m 4,8 km/h (1 Bft) SO 135 0 min 0,000 mm 0 W/m 16,0 C 17,8 C 14,5 km/h (3 Bft) 98 %
20.07.2017 01:40 17,8 C 17,7 C 17,8 C 89 % 1009,9 hPa 0,0 l/m 6,4 km/h (2 Bft) SO 135 0 min 0,000 mm 0 W/m 16,0 C 17,8 C 14,5 km/h (3 Bft) 97 %
20.07.2017 01:50 17,7 C 17,7 C 17,8 C 89 % 1009,7 hPa 0,0 l/m 1,6 km/h (1 Bft) SO 135 0 min 0,000 mm 0 W/m 15,9 C 17,7 C 8,0 km/h (2 Bft) 98 %
20.07.2017 02:00 17,7 C 17,7 C 17,8 C 89 % 1009,6 hPa 0,0 l/m 1,6 km/h (1 Bft) O-SO 112 0 min 0,025 mm 0 W/m 15,9 C 17,7 C 8,0 km/h (2 Bft) 97 %
20.07.2017 02:10 17,7 C 17,7 C 17,7 C 89 % 1009,5 hPa 0,0 l/m 0,0 km/h (0 Bft) N 0 0 min 0,000 mm 0 W/m 15,9 C 17,7 C 0,0 km/h (0 Bft) 98 %
20.07.2017 02:20 17,7 C 17,6 C 17,7 C 89 % 1009,7 hPa 0,0 l/m 0,0 km/h (0 Bft) N 0 0 min 0,000 mm 0 W/m 15,9 C 17,7 C 0,0 km/h (0 Bft) 97 %
20.07.2017 02:30 17,6 C 17,6 C 17,7 C 89 % 1009,4 hPa 0,0 l/m 0,0 km/h (0 Bft) N 0 0 min 0,000 mm 0 W/m 15,8 C 17,6 C 0,0 km/h (0 Bft) 97 %
20.07.2017 02:40 17,5 C 17,5 C 17,6 C 89 % 1009,3 hPa 0,0 l/m 0,0 km/h (0 Bft) N 0 0 min 0,000 mm 0 W/m 15,7 C 17,5 C 0,0 km/h (0 Bft) 98 %
20.07.2017 02:50 17,4 C 17,4 C 17,5 C 89 % 1009,3 hPa 0,0 l/m 0,0 km/h (0 Bft) N 0 0 min 0,000 mm 0 W/m 15,6 C 17,4 C 0,0 km/h (0 Bft) 97 %
20.07.2017 03:00 17,4 C 17,4 C 17,4 C 89 % 1009,1 hPa 0,0 l/m 0,0 km/h (0 Bft) N 0 0 min 0,000 mm 0 W/m 15,6 C 17,4 C 0,0 km/h (0 Bft) 98 %
20.07.2017 03:10 17,3 C 17,3 C 17,4 C 89 % 1009,1 hPa 0,0 l/m 0,0 km/h (0 Bft) N 0 0 min 0,000 mm 0 W/m 15,5 C 17,3 C 0,0 km/h (0 Bft) 97 %
20.07.2017 03:20 17,1 C 17,1 C 17,3 C 89 % 1008,9 hPa 0,0 l/m 0,0 km/h (0 Bft) N 0 0 min 0,000 mm 0 W/m 15,3 C 17,1 C 0,0 km/h (0 Bft) 98 %
20.07.2017 03:30 17,1 C 17,1 C 17,1 C 89 % 1009,0 hPa 0,0 l/m 0,0 km/h (0 Bft) N 0 0 min 0,000 mm 0 W/m 15,3 C 17,1 C 0,0 km/h (0 Bft) 97 %
20.07.2017 03:40 17,0 C 17,0 C 17,1 C 89 % 1009,0 hPa 0,0 l/m 0,0 km/h (0 Bft) N 0 0 min 0,000 mm 0 W/m 15,2 C 17,0 C 0,0 km/h (0 Bft) 98 %
20.07.2017 03:50 17,0 C 17,0 C 17,0 C 89 % 1009,1 hPa 0,0 l/m 0,0 km/h (0 Bft) N 0 0 min 0,000 mm 0 W/m 15,2 C 17,0 C 0,0 km/h (0 Bft) 98 %
20.07.2017 04:00 16,8 C 16,8 C 17,0 C 89 % 1009,3 hPa 0,0 l/m 0,0 km/h (0 Bft) N 0 0 min 0,000 mm 0 W/m 15,0 C 16,8 C 0,0 km/h (0 Bft) 96 %
20.07.2017 04:10 16,9 C 16,8 C 16,9 C 89 % 1009,3 hPa 0,0 l/m 0,0 km/h (0 Bft) N 0 0 min 0,000 mm 0 W/m 15,1 C 16,9 C 0,0 km/h (0 Bft) 98 %
20.07.2017 04:20 17,1 C 16,9 C 17,1 C 89 % 1009,2 hPa 0,0 l/m 0,0 km/h (0 Bft) SO 135 0 min 0,000 mm 0 W/m 15,3 C 17,1 C 3,2 km/h (1 Bft) 97 %
20.07.2017 04:30 17,2 C 17,1 C 17,2 C 89 % 1009,2 hPa 0,0 l/m 0,0 km/h (0 Bft) N-NO 22 0 min 0,000 mm 0 W/m 15,4 C 17,2 C 1,6 km/h (1 Bft) 98 %
20.07.2017 04:40 17,1 C 17,1 C 17,2 C 89 % 1009,2 hPa 0,0 l/m 0,0 km/h (0 Bft) N 0 0 min 0,000 mm 0 W/m 15,3 C 17,1 C 0,0 km/h (0 Bft) 97 %
20.07.2017 04:50 17,1 C 17,1 C 17,2 C 89 % 1009,2 hPa 0,0 l/m 0,0 km/h (0 Bft) N 0 0 min 0,000 mm 0 W/m 15,3 C 17,1 C 0,0 km/h (0 Bft) 98 %
20.07.2017 05:00 17,0 C 17,0 C 17,1 C 89 % 1009,2 hPa 0,0 l/m 0,0 km/h (0 Bft) N-NO 22 0 min 0,000 mm 0 W/m 15,2 C 17,0 C 1,6 km/h (1 Bft) 98 %
20.07.2017 05:10 17,1 C 17,0 C 17,1 C 89 % 1009,1 hPa 0,0 l/m 0,0 km/h (0 Bft) NO 45 0 min 0,000 mm 0 W/m 15,3 C 17,1 C 1,6 km/h (1 Bft) 97 %
20.07.2017 05:20 17,1 C 17,1 C 17,1 C 89 % 1009,1 hPa 0,0 l/m 0,0 km/h (0 Bft) N 0 0 min 0,000 mm 0 W/m 15,3 C 17,1 C 0,0 km/h (0 Bft) 98 %
20.07.2017 05:30 17,2 C 17,1 C 17,2 C 89 % 1008,9 hPa 0,0 l/m 0,0 km/h (0 Bft) N 0 0 min 0,000 mm 0 W/m 15,4 C 17,2 C 0,0 km/h (0 Bft) 97 %
20.07.2017 05:40 17,2 C 17,2 C 17,2 C 89 % 1008,8 hPa 0,0 l/m 0,0 km/h (0 Bft) NO 45 0 min 0,000 mm 0 W/m 15,4 C 17,2 C 1,6 km/h (1 Bft) 98 %
20.07.2017 05:50 17,3 C 17,2 C 17,3 C 89 % 1009,0 hPa 0,0 l/m 0,0 km/h (0 Bft) N 0 0 min 0,000 mm 0 W/m 15,5 C 17,3 C 0,0 km/h (0 Bft) 97 %
20.07.2017 06:00 17,3 C 17,3 C 17,3 C 89 % 1009,2 hPa 0,0 l/m 0,0 km/h (0 Bft) N 0 0 min 0,000 mm 5 W/m 15,5 C 17,3 C 0,0 km/h (0 Bft) 98 %
20.07.2017 06:10 17,3 C 17,3 C 17,3 C 89 % 1009,3 hPa 0,0 l/m 0,0 km/h (0 Bft) N 0 0 min 0,000 mm 7 W/m 15,5 C 17,3 C 0,0 km/h (0 Bft) 98 %
20.07.2017 06:20 17,3 C 17,3 C 17,3 C 89 % 1009,4 hPa 0,0 l/m 0,0 km/h (0 Bft) N 0 0 min 0,000 mm 7 W/m 15,5 C 17,3 C 0,0 km/h (0 Bft) 98 %
20.07.2017 06:30 17,3 C 17,3 C 17,3 C 89 % 1009,4 hPa 0,0 l/m 0,0 km/h (0 Bft) N 0 0 min 0,000 mm 9 W/m 15,5 C 17,3 C 0,0 km/h (0 Bft) 89 %
20.07.2017 06:40 17,3 C 17,3 C 17,3 C 89 % 1009,4 hPa 0,0 l/m 0,0 km/h (0 Bft) N 0 0 min 0,000 mm 12 W/m 15,5 C 17,3 C 0,0 km/h (0 Bft) 97 %
20.07.2017 06:50 17,3 C 17,3 C 17,3 C 89 % 1009,5 hPa 0,0 l/m 0,0 km/h (0 Bft) N 0 0 min 0,000 mm 11 W/m 15,5 C 17,3 C 0,0 km/h (0 Bft) 98 %
20.07.2017 07:00 17,3 C 17,3 C 17,3 C 89 % 1009,5 hPa 0,0 l/m 0,0 km/h (0 Bft) N 0 0 min 0,000 mm 16 W/m 15,5 C 17,3 C 0,0 km/h (0 Bft) 97 %
20.07.2017 07:10 17,4 C 17,3 C 17,4 C 89 % 1009,5 hPa 0,0 l/m 0,0 km/h (0 Bft) N 0 0 min 0,000 mm 40 W/m 15,6 C 17,4 C 0,0 km/h (0 Bft) 98 %
20.07.2017 07:20 17,5 C 17,4 C 17,5 C 89 % 1009,7 hPa 0,0 l/m 0,0 km/h (0 Bft) NO 45 0 min 0,000 mm 40 W/m 15,7 C 17,5 C 1,6 km/h (1 Bft) 98 %
20.07.2017 07:30 17,6 C 17,5 C 17,6 C 89 % 1009,7 hPa 0,0 l/m 0,0 km/h (0 Bft) N 0 0 min 0,000 mm 58 W/m 15,8 C 17,6 C 0,0 km/h (0 Bft) 98 %
20.07.2017 07:40 17,8 C 17,6 C 17,8 C 89 % 1009,7 hPa 0,0 l/m 0,0 km/h (0 Bft) NO 45 0 min 0,000 mm 81 W/m 16,0 C 17,8 C 1,6 km/h (1 Bft) 98 %
20.07.2017 07:50 17,9 C 17,8 C 17,9 C 89 % 1009,6 hPa 0,0 l/m 0,0 km/h (0 Bft) NO 45 0 min 0,000 mm 79 W/m 16,1 C 17,9 C 3,2 km/h (1 Bft) 97 %
20.07.2017 08:00 18,1 C 17,9 C 18,1 C 90 % 1009,6 hPa 0,0 l/m 0,0 km/h (0 Bft) N 0 0 min 0,025 mm 74 W/m 16,4 C 18,1 C 0,0 km/h (0 Bft) 98 %
20.07.2017 08:10 18,0 C 18,0 C 18,1 C 89 % 1009,6 hPa 0,0 l/m 0,0 km/h (0 Bft) N 0 0 min 0,000 mm 72 W/m 16,2 C 18,0 C 0,0 km/h (0 Bft) 97 %
20.07.2017 08:20 18,2 C 18,0 C 18,2 C 89 % 1009,7 hPa 0,0 l/m 0,0 km/h (0 Bft) NO 45 0 min 0,000 mm 118 W/m 16,4 C 18,2 C 1,6 km/h (1 Bft) 98 %
20.07.2017 08:30 18,4 C 18,1 C 18,4 C 90 % 1009,9 hPa 0,0 l/m 0,0 km/h (0 Bft) O-NO 67 10 min 0,000 mm 155 W/m 16,7 C 18,4 C 4,8 km/h (1 Bft) 97 %
20.07.2017 08:40 18,7 C 18,4 C 18,7 C 89 % 1010,1 hPa 0,0 l/m 1,6 km/h (1 Bft) SO 135 10 min 0,000 mm 202 W/m 16,8 C 18,7 C 8,0 km/h (2 Bft) 97 %
20.07.2017 08:50 19,1 C 18,6 C 19,1 C 89 % 1010,0 hPa 0,0 l/m 3,2 km/h (1 Bft) SO 135 10 min 0,000 mm 564 W/m 17,2 C 19,1 C 9,7 km/h (2 Bft) 98 %
20.07.2017 09:00 19,2 C 19,1 C 19,2 C 89 % 1010,0 hPa 0,0 l/m 4,8 km/h (1 Bft) S-SO 157 10 min 0,102 mm 232 W/m 17,3 C 19,2 C 11,3 km/h (2 Bft) 97 %
20.07.2017 09:10 19,4 C 19,2 C 19,4 C 89 % 1010,0 hPa 0,0 l/m 0,0 km/h (0 Bft) S-SO 157 10 min 0,000 mm 186 W/m 17,5 C 19,4 C 1,6 km/h (1 Bft) 98 %
20.07.2017 09:20 19,7 C 19,4 C 19,8 C 89 % 1010,0 hPa 0,0 l/m 3,2 km/h (1 Bft) S-SO 157 10 min 0,000 mm 271 W/m 17,8 C 19,7 C 6,4 km/h (2 Bft) 98 %
20.07.2017 09:30 20,0 C 19,8 C 20,0 C 89 % 1009,9 hPa 0,0 l/m 0,0 km/h (0 Bft) S-SO 157 10 min 0,000 mm 308 W/m 18,1 C 20,0 C 8,0 km/h (2 Bft) 97 %
20.07.2017 09:40 20,4 C 20,0 C 20,4 C 89 % 1010,0 hPa 0,0 l/m 1,6 km/h (1 Bft) S-SO 157 10 min 0,000 mm 311 W/m 18,5 C 20,4 C 6,4 km/h (2 Bft) 98 %
20.07.2017 09:50 20,6 C 20,4 C 20,6 C 89 % 1009,9 hPa 0,0 l/m 1,6 km/h (1 Bft) S 180 10 min 0,000 mm 251 W/m 18,7 C 20,6 C 9,7 km/h (2 Bft) 98 %
20.07.2017 10:00 20,9 C 20,6 C 20,9 C 89 % 1009,9 hPa 0,0 l/m 0,0 km/h (0 Bft) S 180 10 min 0,152 mm 294 W/m 19,0 C 20,9 C 6,4 km/h (2 Bft) 98 %
20.07.2017 10:10 21,1 C 20,9 C 21,1 C 88 % 1010,1 hPa 0,0 l/m 4,8 km/h (1 Bft) S 180 10 min 0,000 mm 234 W/m 19,0 C 21,1 C 11,3 km/h (2 Bft) 97 %
20.07.2017 10:20 21,5 C 21,1 C 21,5 C 88 % 1010,1 hPa 0,0 l/m 4,8 km/h (1 Bft) S 180 10 min 0,000 mm 360 W/m 19,4 C 21,5 C 11,3 km/h (2 Bft) 97 %
20.07.2017 10:30 22,4 C 21,5 C 22,4 C 87 % 1010,0 hPa 0,0 l/m 1,6 km/h (1 Bft) S 180 10 min 0,000 mm 875 W/m 20,1 C 22,4 C 9,7 km/h (2 Bft) 98 %
20.07.2017 10:40 23,5 C 22,4 C 23,5 C 85 % 1010,0 hPa 0,0 l/m 1,6 km/h (1 Bft) S-SW 202 10 min 0,000 mm 867 W/m 20,8 C 23,5 C 16,1 km/h (3 Bft) 98 %
20.07.2017 10:50 23,7 C 23,5 C 23,8 C 78 % 1010,1 hPa 0,0 l/m 8,0 km/h (2 Bft) SW 225 10 min 0,000 mm 564 W/m 19,6 C 23,2 C 20,9 km/h (4 Bft) 98 %
20.07.2017 11:00 23,4 C 23,4 C 23,7 C 73 % 1010,2 hPa 0,0 l/m 8,0 km/h (2 Bft) SW 225 10 min 0,279 mm 258 W/m 18,3 C 22,9 C 25,7 km/h (4 Bft) 98 %
20.07.2017 11:10 23,3 C 23,3 C 23,4 C 71 % 1010,3 hPa 0,0 l/m 8,0 km/h (2 Bft) W-SW 247 10 min 0,000 mm 315 W/m 17,7 C 22,8 C 22,5 km/h (4 Bft) 98 %
20.07.2017 11:30 23,3 C 23,3 C 23,4 C 70 % 1010,3 hPa 0,0 l/m 9,0 km/h (2 Bft) W-NW 302 20 min 0,000 mm 178 W/m 17,5 C 22,5 C 20,9 km/h (4 Bft) 99 %
20.07.2017 11:40 23,1 C 23,1 C 23,3 C 70 % 1010,5 hPa 0,0 l/m 8,7 km/h (2 Bft) W-SW 257 0 min 0,000 mm 137 W/m 17,3 C 22,4 C 17,7 km/h (3 Bft) 100 %
20.07.2017 11:50 22,7 C 22,7 C 23,1 C 70 % 1010,5 hPa 0,0 l/m 11,4 km/h (2 Bft) N-NW 327 10 min 0,000 mm 174 W/m 16,9 C 21,3 C 27,4 km/h (4 Bft) 100 %
20.07.2017 12:00 22,3 C 22,3 C 22,7 C 70 % 1010,6 hPa 0,0 l/m 11,7 km/h (2 Bft) W 273 0 min 0,128 mm 121 W/m 16,6 C 20,7 C 27,4 km/h (4 Bft) 100 %
20.07.2017 12:10 22,0 C 22,0 C 22,3 C 70 % 1010,8 hPa 0,0 l/m 9,8 km/h (2 Bft) W 261 0 min 0,000 mm 49 W/m 16,3 C 20,9 C 25,7 km/h (4 Bft) 100 %
20.07.2017 12:20 21,6 C 21,6 C 22,0 C 76 % 1011,0 hPa 0,0 l/m 7,9 km/h (2 Bft) W-SW 237 0 min 0,000 mm 56 W/m 17,2 C 21,1 C 22,5 km/h (4 Bft) 99 %
20.07.2017 12:30 20,7 C 20,7 C 21,6 C 81 % 1011,2 hPa 0,0 l/m 7,5 km/h (2 Bft) S-SW 206 0 min 0,000 mm 109 W/m 17,3 C 20,3 C 22,5 km/h (4 Bft) 100 %
20.07.2017 12:40 19,7 C 19,7 C 20,7 C 85 % 1011,3 hPa 0,0 l/m 6,1 km/h (2 Bft) S-SW 195 0 min 0,000 mm 91 W/m 17,1 C 19,7 C 22,5 km/h (4 Bft) 100 %
20.07.2017 12:50 19,1 C 19,1 C 19,7 C 87 % 1011,4 hPa 0,4 l/m 5,1 km/h (1 Bft) S 186 0 min 0,000 mm 84 W/m 16,9 C 19,1 C 17,7 km/h (3 Bft) 100 %
20.07.2017 13:00 18,9 C 18,9 C 19,1 C 88 % 1011,6 hPa 0,4 l/m 2,5 km/h (1 Bft) S 190 0 min 0,077 mm 134 W/m 16,9 C 18,9 C 16,1 km/h (3 Bft) 100 %
20.07.2017 13:10 18,8 C 18,8 C 18,9 C 88 % 1011,5 hPa 0,0 l/m 1,4 km/h (1 Bft) S 189 0 min 0,000 mm 69 W/m 16,8 C 18,8 C 9,7 km/h (2 Bft) 100 %
20.07.2017 13:20 18,7 C 18,7 C 18,8 C 88 % 1011,4 hPa 0,4 l/m 0,0 km/h (0 Bft) S-SW 193 0 min 0,000 mm 81 W/m 16,7 C 18,7 C 0,0 km/h (0 Bft) 99 %
20.07.2017 13:30 18,7 C 18,7 C 18,7 C 88 % 1011,5 hPa 0,4 l/m 0,3 km/h (0 Bft) SW 236 0 min 0,000 mm 70 W/m 16,7 C 18,7 C 6,4 km/h (2 Bft) 99 %
20.07.2017 13:40 18,7 C 18,7 C 18,7 C 88 % 1011,6 hPa 0,0 l/m 0,0 km/h (0 Bft) S-SW 201 0 min 0,000 mm 86 W/m 16,7 C 18,7 C 1,6 km/h (1 Bft) 100 %
20.07.2017 13:50 18,7 C 18,6 C 18,7 C 89 % 1012,0 hPa 0,0 l/m 2,1 km/h (1 Bft) S 173 10 min 0,000 mm 160 W/m 16,8 C 18,7 C 16,1 km/h (3 Bft) 99 %
20.07.2017 14:00 18,7 C 18,7 C 18,7 C 89 % 1011,9 hPa 0,0 l/m 2,5 km/h (1 Bft) S-SW 192 10 min 0,050 mm 165 W/m 16,8 C 18,7 C 9,7 km/h (2 Bft) 99 %
20.07.2017 14:10 18,8 C 18,7 C 18,8 C 89 % 1011,9 hPa 0,0 l/m 0,1 km/h (0 Bft) S 175 0 min 0,000 mm 137 W/m 16,9 C 18,8 C 6,4 km/h (2 Bft) 100 %
20.07.2017 14:20 18,9 C 18,8 C 18,9 C 89 % 1011,9 hPa 0,0 l/m 1,3 km/h (1 Bft) S-SW 207 0 min 0,000 mm 135 W/m 17,0 C 18,9 C 8,0 km/h (2 Bft) 100 %
20.07.2017 14:30 19,1 C 18,9 C 19,1 C 89 % 1011,9 hPa 0,0 l/m 0,5 km/h (0 Bft) S-SW 213 0 min 0,000 mm 121 W/m 17,2 C 19,1 C 9,7 km/h (2 Bft) 100 %
20.07.2017 14:40 19,1 C 19,1 C 19,1 C 89 % 1011,9 hPa 0,0 l/m 1,2 km/h (1 Bft) S-SW 196 0 min 0,000 mm 120 W/m 17,2 C 19,1 C 11,3 km/h (2 Bft) 100 %
20.07.2017 14:50 19,2 C 19,1 C 19,2 C 89 % 1011,8 hPa 0,0 l/m 2,4 km/h (1 Bft) S-SW 202 10 min 0,000 mm 229 W/m 17,3 C 19,2 C 9,7 km/h (2 Bft) 99 %
20.07.2017 15:00 19,6 C 19,2 C 19,6 C 89 % 1011,6 hPa 0,0 l/m 0,0 km/h (0 Bft) SO 146 10 min 0,102 mm 492 W/m 17,7 C 19,6 C 4,8 km/h (1 Bft) 99 %
20.07.2017 15:10 19,8 C 19,6 C 19,8 C 89 % 1011,5 hPa 0,0 l/m 0,0 km/h (0 Bft) S 173 10 min 0,000 mm 338 W/m 17,9 C 19,8 C 1,6 km/h (1 Bft) 99 %
20.07.2017 15:20 20,2 C 19,8 C 20,2 C 89 % 1011,5 hPa 0,0 l/m 3,3 km/h (1 Bft) W 260 10 min 0,000 mm 290 W/m 18,3 C 20,2 C 9,7 km/h (2 Bft) 100 %
20.07.2017 15:30 20,3 C 20,2 C 20,4 C 89 % 1011,5 hPa 0,0 l/m 1,2 km/h (1 Bft) SW 223 10 min 0,000 mm 241 W/m 18,4 C 20,3 C 8,0 km/h (2 Bft) 100 %
20.07.2017 15:40 20,6 C 20,3 C 20,6 C 88 % 1011,4 hPa 0,0 l/m 0,3 km/h (0 Bft) SW 221 10 min 0,000 mm 278 W/m 18,5 C 20,6 C 8,0 km/h (2 Bft) 100 %
20.07.2017 15:50 20,9 C 20,6 C 20,9 C 88 % 1011,4 hPa 0,0 l/m 4,2 km/h (1 Bft) SW 217 10 min 0,000 mm 364 W/m 18,8 C 20,9 C 14,5 km/h (3 Bft) 100 %
20.07.2017 16:00 21,2 C 20,9 C 21,2 C 87 % 1011,5 hPa 0,0 l/m 8,3 km/h (2 Bft) S-SW 204 10 min 0,178 mm 232 W/m 18,9 C 20,5 C 17,7 km/h (3 Bft) 100 %
20.07.2017 16:10 21,4 C 21,2 C 21,4 C 86 % 1011,3 hPa 0,0 l/m 2,1 km/h (1 Bft) S 182 10 min 0,000 mm 357 W/m 19,0 C 21,4 C 11,3 km/h (2 Bft) 99 %
20.07.2017 16:20 21,6 C 21,4 C 21,6 C 87 % 1011,2 hPa 0,0 l/m 4,9 km/h (1 Bft) O-SO 107 10 min 0,000 mm 408 W/m 19,3 C 21,6 C 16,1 km/h (3 Bft) 100 %
20.07.2017 16:30 21,9 C 21,6 C 21,9 C 83 % 1011,1 hPa 0,0 l/m 1,9 km/h (1 Bft) SO 143 10 min 0,000 mm 220 W/m 18,9 C 21,9 C 11,3 km/h (2 Bft) 100 %
20.07.2017 16:40 22,2 C 21,8 C 22,2 C 85 % 1010,9 hPa 0,0 l/m 3,1 km/h (1 Bft) S-SO 155 10 min 0,000 mm 573 W/m 19,6 C 22,2 C 14,5 km/h (3 Bft) 99 %
20.07.2017 16:50 22,7 C 22,2 C 22,7 C 81 % 1010,9 hPa 0,0 l/m 4,7 km/h (1 Bft) S-SW 197 0 min 0,000 mm 93 W/m 19,3 C 22,7 C 16,1 km/h (3 Bft) 99 %
20.07.2017 17:00 22,9 C 22,7 C 22,9 C 76 % 1010,9 hPa 0,0 l/m 7,8 km/h (2 Bft) S 188 0 min 0,254 mm 95 W/m 18,4 C 22,5 C 17,7 km/h (3 Bft) 99 %
20.07.2017 17:10 22,9 C 22,9 C 23,0 C 77 % 1010,8 hPa 0,0 l/m 6,4 km/h (2 Bft) S 175 0 min 0,000 mm 90 W/m 18,6 C 22,9 C 19,3 km/h (3 Bft) 100 %
20.07.2017 17:20 22,9 C 22,9 C 23,0 C 78 % 1010,9 hPa 0,0 l/m 2,5 km/h (1 Bft) SW 235 0 min 0,000 mm 121 W/m 18,9 C 22,9 C 16,1 km/h (3 Bft) 99 %
20.07.2017 17:30 22,9 C 22,9 C 23,1 C 77 % 1010,8 hPa 0,0 l/m 4,4 km/h (1 Bft) S 183 0 min 0,000 mm 69 W/m 18,6 C 22,9 C 16,1 km/h (3 Bft) 99 %
20.07.2017 17:40 22,4 C 22,4 C 22,9 C 77 % 1010,9 hPa 0,0 l/m 4,0 km/h (1 Bft) S-SW 196 0 min 0,000 mm 69 W/m 18,2 C 22,4 C 16,1 km/h (3 Bft) 99 %
20.07.2017 17:50 22,1 C 22,1 C 22,4 C 81 % 1010,9 hPa 0,2 l/m 1,5 km/h (1 Bft) S 175 0 min 0,000 mm 33 W/m 18,7 C 22,1 C 14,5 km/h (3 Bft) 97 %
20.07.2017 18:00 21,3 C 21,3 C 22,1 C 84 % 1011,1 hPa 1,2 l/m 9,9 km/h (2 Bft) S-SW 192 0 min 0,076 mm 37 W/m 18,5 C 20,1 C 25,7 km/h (4 Bft) 97 %
20.07.2017 18:10 20,6 C 20,6 C 21,3 C 87 % 1011,0 hPa 0,2 l/m 3,0 km/h (1 Bft) SW 236 0 min 0,000 mm 149 W/m 18,4 C 20,6 C 17,7 km/h (3 Bft) 98 %
20.07.2017 18:20 20,3 C 20,2 C 20,6 C 88 % 1010,7 hPa 0,2 l/m 0,0 km/h (0 Bft) SW 235 0 min 0,000 mm 125 W/m 18,2 C 20,3 C 0,0 km/h (0 Bft) 97 %
20.07.2017 18:30 20,0 C 20,0 C 20,3 C 88 % 1010,7 hPa 0,0 l/m 0,0 km/h (0 Bft) SW 235 0 min 0,000 mm 72 W/m 17,9 C 20,0 C 1,6 km/h (1 Bft) 98 %
20.07.2017 18:40 19,8 C 19,8 C 20,0 C 88 % 1010,9 hPa 0,0 l/m 0,0 km/h (0 Bft) SW 230 0 min 0,000 mm 123 W/m 17,8 C 19,8 C 1,6 km/h (1 Bft) 97 %
20.07.2017 18:50 19,9 C 19,8 C 19,9 C 88 % 1010,7 hPa 0,0 l/m 0,0 km/h (0 Bft) S-SW 206 0 min 0,000 mm 141 W/m 17,8 C 19,9 C 1,6 km/h (1 Bft) 97 %
20.07.2017 19:00 20,1 C 19,9 C 20,1 C 88 % 1010,7 hPa 0,0 l/m 0,0 km/h (0 Bft) SW 227 0 min 0,076 mm 142 W/m 18,0 C 20,1 C 0,0 km/h (0 Bft) 98 %
20.07.2017 19:10 20,4 C 20,1 C 20,4 C 89 % 1010,9 hPa 0,0 l/m 0,4 km/h (0 Bft) W 260 10 min 0,000 mm 155 W/m 18,5 C 20,4 C 8,0 km/h (2 Bft) 98 %
20.07.2017 19:20 20,6 C 20,4 C 20,6 C 88 % 1010,9 hPa 0,0 l/m 1,4 km/h (1 Bft) S-SW 213 0 min 0,000 mm 123 W/m 18,5 C 20,6 C 9,7 km/h (2 Bft) 99 %
20.07.2017 19:30 20,7 C 20,6 C 20,7 C 88 % 1011,0 hPa 0,0 l/m 0,0 km/h (0 Bft) S-SW 210 0 min 0,000 mm 90 W/m 18,6 C 20,7 C 1,6 km/h (1 Bft) 97 %
20.07.2017 19:40 20,8 C 20,7 C 20,9 C 88 % 1011,0 hPa 0,0 l/m 0,0 km/h (0 Bft) SO 143 0 min 0,000 mm 77 W/m 18,7 C 20,8 C 3,2 km/h (1 Bft) 98 %
20.07.2017 19:50 20,6 C 20,6 C 20,8 C 87 % 1011,1 hPa 0,0 l/m 6,2 km/h (2 Bft) SO 135 0 min 0,000 mm 56 W/m 18,4 C 20,6 C 14,5 km/h (3 Bft) 97 %
20.07.2017 20:00 20,4 C 20,4 C 20,6 C 88 % 1011,3 hPa 0,0 l/m 4,5 km/h (1 Bft) SO 140 0 min 0,051 mm 44 W/m 18,3 C 20,4 C 14,5 km/h (3 Bft) 98 %
20.07.2017 20:10 20,3 C 20,3 C 20,4 C 88 % 1011,2 hPa 0,0 l/m 5,3 km/h (1 Bft) S-SO 156 0 min 0,000 mm 35 W/m 18,2 C 20,3 C 14,5 km/h (3 Bft) 97 %
20.07.2017 20:20 20,2 C 20,2 C 20,3 C 88 % 1011,2 hPa 0,0 l/m 2,5 km/h (1 Bft) S-SO 150 0 min 0,000 mm 28 W/m 18,1 C 20,2 C 11,3 km/h (2 Bft) 97 %
20.07.2017 20:30 20,0 C 20,0 C 20,2 C 88 % 1011,3 hPa 0,0 l/m 3,3 km/h (1 Bft) S-SO 153 0 min 0,000 mm 32 W/m 17,9 C 20,0 C 11,3 km/h (2 Bft) 98 %
20.07.2017 20:40 19,8 C 19,8 C 20,0 C 88 % 1011,3 hPa 0,0 l/m 1,5 km/h (1 Bft) SO 140 0 min 0,000 mm 25 W/m 17,8 C 19,8 C 14,5 km/h (3 Bft) 97 %
20.07.2017 20:50 19,7 C 19,7 C 19,8 C 88 % 1011,4 hPa 0,0 l/m 0,0 km/h (0 Bft) S-SO 161 0 min 0,000 mm 12 W/m 17,7 C 19,7 C 1,6 km/h (1 Bft) 98 %
20.07.2017 21:00 19,5 C 19,5 C 19,7 C 88 % 1011,5 hPa 0,0 l/m 2,5 km/h (1 Bft) S-SO 150 0 min 0,025 mm 9 W/m 17,5 C 19,5 C 8,0 km/h (2 Bft) 97 %
20.07.2017 21:10 19,2 C 19,2 C 19,4 C 88 % 1011,5 hPa 0,0 l/m 0,0 km/h (0 Bft) SO 135 0 min 0,000 mm 9 W/m 17,2 C 19,2 C 1,6 km/h (1 Bft) 100 %
20.07.2017 21:20 18,9 C 18,9 C 19,2 C 88 % 1011,6 hPa 0,0 l/m 0,0 km/h (0 Bft) S-SO 157 0 min 0,000 mm 5 W/m 16,9 C 18,9 C 1,6 km/h (1 Bft) 100 %
20.07.2017 21:30 18,8 C 18,8 C 18,9 C 89 % 1011,9 hPa 0,0 l/m 1,6 km/h (1 Bft) S-SO 157 0 min 0,000 mm 0 W/m 16,9 C 18,8 C 6,4 km/h (2 Bft) 100 %
20.07.2017 21:40 18,7 C 18,7 C 18,8 C 88 % 1012,1 hPa 0,0 l/m 0,0 km/h (0 Bft) N 0 0 min 0,000 mm 0 W/m 16,7 C 18,7 C 0,0 km/h (0 Bft) 100 %
20.07.2017 21:50 18,6 C 18,6 C 18,7 C 89 % 1012,1 hPa 0,0 l/m 0,0 km/h (0 Bft) N 0 0 min 0,000 mm 0 W/m 16,7 C 18,6 C 0,0 km/h (0 Bft) 100 %
20.07.2017 22:00 18,4 C 18,4 C 18,6 C 89 % 1012,3 hPa 0,0 l/m 0,0 km/h (0 Bft) S-SO 157 0 min 0,000 mm 0 W/m 16,6 C 18,4 C 1,6 km/h (1 Bft) 100 %
20.07.2017 22:10 18,3 C 18,3 C 18,4 C 89 % 1012,4 hPa 0,0 l/m 0,0 km/h (0 Bft) S-SO 157 0 min 0,000 mm 0 W/m 16,5 C 18,3 C 1,6 km/h (1 Bft) 100 %
20.07.2017 22:20 18,3 C 18,3 C 18,3 C 89 % 1012,4 hPa 0,0 l/m 0,0 km/h (0 Bft) S-SO 157 0 min 0,000 mm 0 W/m 16,5 C 18,3 C 6,4 km/h (2 Bft) 100 %
20.07.2017 22:30 18,3 C 18,3 C 18,3 C 89 % 1012,7 hPa 0,0 l/m 3,2 km/h (1 Bft) S-SO 157 0 min 0,000 mm 0 W/m 16,5 C 18,3 C 8,0 km/h (2 Bft) 100 %
20.07.2017 22:40 18,3 C 18,3 C 18,4 C 89 % 1012,8 hPa 0,0 l/m 1,6 km/h (1 Bft) S-SO 157 0 min 0,000 mm 0 W/m 16,5 C 18,3 C 8,0 km/h (2 Bft) 100 %
20.07.2017 22:50 18,2 C 18,2 C 18,3 C 89 % 1012,7 hPa 0,0 l/m 4,8 km/h (1 Bft) S-SO 157 0 min 0,000 mm 0 W/m 16,4 C 18,2 C 9,7 km/h (2 Bft) 100 %
20.07.2017 23:00 18,1 C 18,1 C 18,2 C 89 % 1012,7 hPa 0,0 l/m 0,0 km/h (0 Bft) SO 135 0 min 0,000 mm 0 W/m 16,3 C 18,1 C 3,2 km/h (1 Bft) 100 %
20.07.2017 23:10 18,1 C 18,1 C 18,2 C 89 % 1012,7 hPa 0,0 l/m 0,0 km/h (0 Bft) N 0 0 min 0,000 mm 0 W/m 16,3 C 18,1 C 0,0 km/h (0 Bft) 100 %
20.07.2017 23:20 17,9 C 17,9 C 18,1 C 89 % 1012,6 hPa 0,0 l/m 0,0 km/h (0 Bft) SO 135 0 min 0,000 mm 0 W/m 16,1 C 17,9 C 1,6 km/h (1 Bft) 100 %
20.07.2017 23:30 17,8 C 17,8 C 17,9 C 89 % 1012,7 hPa 0,0 l/m 1,6 km/h (1 Bft) SO 135 0 min 0,000 mm 0 W/m 16,0 C 17,8 C 6,4 km/h (2 Bft) 100 %
20.07.2017 23:40 17,7 C 17,7 C 17,8 C 89 % 1012,5 hPa 0,0 l/m 1,6 km/h (1 Bft) SO 135 0 min 0,000 mm 0 W/m 15,9 C 17,7 C 8,0 km/h (2 Bft) 100 %
20.07.2017 23:50 17,7 C 17,7 C 17,7 C 89 % 1012,5 hPa 0,0 l/m 0,0 km/h (0 Bft) S-SO 157 0 min 0,000 mm 0 W/m 15,9 C 17,7 C 1,6 km/h (1 Bft) 100 %
_ Min-Zeit 04:00 04:00 04:10 11:30 05:40 - 01:20 - - - - - 04:00 00:10 02:10 06:30
Minimum _ 16,8 C 16,8 C 16,9 C 70 % 1008,8 hPa - 0,0 km/h (0 Bft) - - - - - 15,0 C 15,0 C 0,0 km/h (0 Bft) 89 %
_ Max-Zeit 10:50 10:50 10:50 08:00 22:40 00:10 00:10 - - 11:30 11:00 10:30 10:40 10:40 00:10 21:20
Maximum _ 23,8 C 23,5 C 23,8 C 90 % 1012,8 hPa 4,4 l/m 17,7 km/h
SO (3 Bft)
- - 20 min 0,279 mm 875 W/m 20,8 C 23,5 C 37,0 km/h
S-SO (5 Bft)
100 %
Durchschnitt _ 19,3 C 19,2 C 19,4 C 87 % 1010,6 hPa #9,8 l/m 2,5 km/h (1 Bft) S-SO - #5:50 h #1,676 mm 166 W/m 17,0 C 19,1 C 8,5 km/h (2 Bft) 98 %
PRIVATE WETTERSTATION BILLIGHEIM-ALLFELD - www.neckar-odenwald-wetter.de - Holger Sonntag